createdAt,value
2023-02-28T00:01:01.527Z,20.10
2023-02-28T00:04:03.135Z,20.10
2023-02-28T00:07:04.573Z,19.80
2023-02-28T00:10:08.002Z,20.10
2023-02-28T00:13:09.443Z,19.80
2023-02-28T00:16:16.211Z,19.80
2023-02-28T00:19:17.510Z,20.10
2023-02-28T00:22:21.130Z,19.70
2023-02-28T00:25:24.418Z,19.80
2023-02-28T00:28:25.721Z,20.20
2023-02-28T00:31:27.204Z,19.70
2023-02-28T00:34:29.122Z,19.80
2023-02-28T00:37:30.834Z,19.80
2023-02-28T00:40:32.807Z,19.80
2023-02-28T00:43:34.815Z,19.80
2023-02-28T00:46:36.193Z,20.20
2023-02-28T00:49:37.540Z,20.30
2023-02-28T00:52:38.811Z,20.10
2023-02-28T00:55:40.836Z,20.00
2023-02-28T00:58:42.113Z,19.80
2023-02-28T01:01:44.120Z,19.70
2023-02-28T01:04:45.596Z,19.90
2023-02-28T01:07:46.886Z,19.80
2023-02-28T01:10:48.956Z,19.70
2023-02-28T01:13:50.325Z,20.20
2023-02-28T01:16:52.128Z,19.90
2023-02-28T01:19:53.802Z,20.10
2023-02-28T01:22:55.113Z,20.00
2023-02-28T01:25:57.100Z,19.70
2023-02-28T01:28:58.490Z,19.90
2023-02-28T01:32:00.670Z,20.00
2023-02-28T01:35:02.560Z,20.00
2023-02-28T01:38:20.517Z,19.70
2023-02-28T01:41:24.973Z,19.70
2023-02-28T01:44:38.872Z,19.60
2023-02-28T01:47:41.821Z,19.70
2023-02-28T01:50:45.348Z,20.10
2023-02-28T01:53:48.193Z,20.10
2023-02-28T01:56:52.019Z,19.80
2023-02-28T01:59:55.548Z,19.90
2023-02-28T02:02:58.414Z,19.60
2023-02-28T02:05:59.871Z,19.90
2023-02-28T02:09:01.183Z,19.50
2023-02-28T02:12:10.146Z,20.10
2023-02-28T02:15:13.259Z,19.50
2023-02-28T02:18:19.382Z,19.90
2023-02-28T02:21:36.857Z,20.00
2023-02-28T02:24:49.410Z,19.90
2023-02-28T02:28:00.361Z,19.90
2023-02-28T02:31:15.430Z,19.90
2023-02-28T02:34:24.932Z,19.90
2023-02-28T02:37:31.451Z,19.80
2023-02-28T02:40:36.411Z,19.50
2023-02-28T02:43:42.193Z,19.80
2023-02-28T02:46:44.581Z,19.60
2023-02-28T02:49:49.165Z,19.70
2023-02-28T02:52:52.692Z,19.80
2023-02-28T02:55:54.607Z,20.00
2023-02-28T02:59:00.123Z,19.50
2023-02-28T03:02:04.396Z,19.90
2023-02-28T03:05:08.033Z,19.60
2023-02-28T03:08:09.306Z,19.80
2023-02-28T03:11:14.894Z,19.50
2023-02-28T03:14:26.373Z,19.90
2023-02-28T03:17:36.262Z,19.70
2023-02-28T03:20:42.598Z,19.80
2023-02-28T03:23:46.822Z,20.00
2023-02-28T03:26:56.053Z,19.60
2023-02-28T03:30:00.795Z,19.60
2023-02-28T03:33:05.232Z,19.40
2023-02-28T03:36:09.687Z,19.90
2023-02-28T03:39:14.484Z,19.50
2023-02-28T03:42:18.506Z,19.40
2023-02-28T03:45:23.229Z,19.80
2023-02-28T03:48:26.961Z,19.50
2023-02-28T03:51:29.795Z,19.90
2023-02-28T03:54:32.359Z,20.00
2023-02-28T03:57:37.880Z,19.70
2023-02-28T04:00:40.671Z,19.60
2023-02-28T04:03:41.996Z,19.80
2023-02-28T04:06:44.277Z,20.10
2023-02-28T04:09:45.591Z,19.80
2023-02-28T04:12:46.876Z,19.50
2023-02-28T04:15:48.263Z,19.90
2023-02-28T04:18:49.606Z,19.80
2023-02-28T04:21:52.294Z,19.60
2023-02-28T04:24:54.572Z,19.90
2023-02-28T04:27:55.882Z,19.80
2023-02-28T04:30:57.575Z,19.40
2023-02-28T04:33:58.880Z,19.90
2023-02-28T04:37:17.046Z,19.50
2023-02-28T04:40:18.457Z,19.70
2023-02-28T04:43:19.741Z,19.50
2023-02-28T04:46:21.393Z,19.50
2023-02-28T04:49:22.649Z,19.50
2023-02-28T04:52:24.597Z,19.80
2023-02-28T04:55:25.821Z,19.90
2023-02-28T04:58:28.290Z,19.90
2023-02-28T05:01:31.292Z,19.50
2023-02-28T05:04:34.346Z,19.50
2023-02-28T05:07:36.156Z,19.40
2023-02-28T05:10:37.441Z,19.50
2023-02-28T05:13:38.722Z,19.80
2023-02-28T05:16:40.124Z,19.70
2023-02-28T05:19:41.361Z,19.70
2023-02-28T05:22:43.931Z,19.80
2023-02-28T05:25:45.164Z,19.60
2023-02-28T05:28:46.440Z,19.60
2023-02-28T05:31:47.874Z,19.80
2023-02-28T05:34:49.239Z,19.50
2023-02-28T05:37:51.077Z,19.50
2023-02-28T05:40:53.626Z,19.40
2023-02-28T05:43:55.029Z,19.30
2023-02-28T05:46:56.584Z,19.50
2023-02-28T05:49:57.780Z,19.80
2023-02-28T05:52:59.671Z,19.50
2023-02-28T05:56:00.958Z,19.30
2023-02-28T05:59:02.369Z,19.40
2023-02-28T06:02:03.775Z,19.40
2023-02-28T06:05:05.306Z,19.70
2023-02-28T06:08:07.510Z,19.60
2023-02-28T06:11:08.744Z,19.80
2023-02-28T06:14:13.336Z,19.70
2023-02-28T06:17:14.755Z,19.50
2023-02-28T06:20:16.134Z,19.80
2023-02-28T06:23:17.948Z,19.60
2023-02-28T06:26:19.280Z,19.50
2023-02-28T06:29:20.534Z,19.80
2023-02-28T06:32:22.064Z,19.60
2023-02-28T06:35:23.493Z,19.70
2023-02-28T06:38:25.611Z,19.60
2023-02-28T06:41:28.025Z,19.70
2023-02-28T06:44:35.231Z,19.90
2023-02-28T06:47:37.260Z,19.70
2023-02-28T06:50:38.600Z,19.70
2023-02-28T06:53:40.705Z,19.30
2023-02-28T06:56:42.057Z,19.70
2023-02-28T06:59:43.319Z,19.80
2023-02-28T07:02:44.859Z,19.70
2023-02-28T07:05:46.299Z,19.70
2023-02-28T07:08:48.512Z,19.70
2023-02-28T07:11:49.945Z,19.70
2023-02-28T07:14:51.371Z,19.70
2023-02-28T07:17:52.753Z,19.80
2023-02-28T07:20:54.424Z,19.50
2023-02-28T07:23:56.837Z,20.00
2023-02-28T07:26:58.147Z,19.90
2023-02-28T07:30:01.778Z,19.90
2023-02-28T07:33:04.090Z,19.60
2023-02-28T07:36:06.831Z,20.10
2023-02-28T07:39:10.408Z,20.10
2023-02-28T07:42:12.280Z,20.10
2023-02-28T07:45:14.558Z,19.90
2023-02-28T07:48:15.958Z,20.10
2023-02-28T07:51:17.661Z,20.10
2023-02-28T07:54:19.604Z,20.20
2023-02-28T07:57:20.948Z,20.00
2023-02-28T08:00:22.856Z,19.40
2023-02-28T08:03:25.024Z,20.20
2023-02-28T08:06:26.602Z,20.30
2023-02-28T08:09:30.070Z,20.10
2023-02-28T08:12:31.409Z,20.50
2023-02-28T08:15:32.803Z,20.20
2023-02-28T08:18:34.279Z,20.60
2023-02-28T08:21:35.580Z,19.90
2023-02-28T08:24:37.435Z,20.50
2023-02-28T08:27:38.727Z,20.30
2023-02-28T08:30:41.202Z,20.20
2023-02-28T08:33:44.676Z,20.30
2023-02-28T08:36:46.182Z,20.50
2023-02-28T08:39:48.034Z,20.40
2023-02-28T08:42:50.580Z,20.60
2023-02-28T08:45:52.443Z,20.50
2023-02-28T08:48:53.982Z,20.60
2023-02-28T08:51:55.522Z,20.20
2023-02-28T08:54:57.386Z,20.70
2023-02-28T08:57:58.736Z,20.30
2023-02-28T09:01:00.309Z,20.70
2023-02-28T09:04:02.614Z,20.60
2023-02-28T09:07:03.938Z,20.60
2023-02-28T09:10:06.121Z,20.50
2023-02-28T09:13:07.408Z,20.70
2023-02-28T09:16:10.505Z,20.70
2023-02-28T09:19:12.573Z,20.70
2023-02-28T09:22:13.803Z,21.00
2023-02-28T09:25:15.838Z,20.90
2023-02-28T09:28:17.459Z,20.70
2023-02-28T09:31:21.374Z,21.00
2023-02-28T09:34:22.906Z,20.90
2023-02-28T09:37:24.276Z,20.90
2023-02-28T09:40:26.443Z,21.00
2023-02-28T09:43:29.666Z,20.90
2023-02-28T09:46:33.778Z,20.90
2023-02-28T09:49:37.733Z,21.00
2023-02-28T09:52:38.963Z,20.70
2023-02-28T09:55:47.166Z,21.00
2023-02-28T09:58:52.538Z,20.70
2023-02-28T10:01:59.449Z,21.00
2023-02-28T10:05:02.863Z,20.90
2023-02-28T10:08:08.509Z,20.90
2023-02-28T10:11:12.304Z,20.80
2023-02-28T10:14:15.486Z,21.00
2023-02-28T10:17:18.263Z,20.90
2023-02-28T10:20:21.713Z,21.00
2023-02-28T10:23:26.124Z,21.10
2023-02-28T10:26:29.531Z,20.90
2023-02-28T10:29:32.628Z,21.00
2023-02-28T10:32:35.634Z,20.60
2023-02-28T10:35:37.016Z,21.10
2023-02-28T10:38:39.595Z,21.00
2023-02-28T10:41:43.318Z,20.90
2023-02-28T10:44:44.730Z,21.10
2023-02-28T10:47:50.351Z,21.10
2023-02-28T10:50:52.535Z,21.20
2023-02-28T10:54:01.546Z,21.00
2023-02-28T10:57:09.231Z,20.90
2023-02-28T11:00:14.665Z,21.20
2023-02-28T11:03:24.198Z,21.20
2023-02-28T11:06:26.719Z,21.10
2023-02-28T11:09:29.577Z,21.30
2023-02-28T11:12:37.835Z,21.20
2023-02-28T11:15:41.912Z,21.50
2023-02-28T11:18:47.154Z,21.00
2023-02-28T11:21:52.508Z,21.20
2023-02-28T11:24:55.589Z,21.10
2023-02-28T11:28:01.133Z,21.00
2023-02-28T11:31:06.176Z,21.00
2023-02-28T11:34:22.326Z,21.00
2023-02-28T11:37:24.177Z,21.10
2023-02-28T11:40:29.702Z,21.40
2023-02-28T11:43:39.149Z,20.80
2023-02-28T11:46:44.712Z,21.30
2023-02-28T11:49:50.888Z,20.90
2023-02-28T11:52:53.217Z,21.40
2023-02-28T11:55:59.481Z,21.20
2023-02-28T11:59:08.431Z,21.20
2023-02-28T12:02:22.733Z,20.80
2023-02-28T12:05:28.027Z,21.10
2023-02-28T12:08:40.266Z,21.10
2023-02-28T12:11:45.585Z,21.40
2023-02-28T12:14:57.628Z,21.20
2023-02-28T12:18:04.978Z,21.20
2023-02-28T12:21:12.294Z,21.00
2023-02-28T12:24:24.894Z,21.20
2023-02-28T12:27:28.413Z,21.10
2023-02-28T12:30:31.726Z,21.30
2023-02-28T12:33:35.016Z,21.20
2023-02-28T12:36:37.156Z,21.40
2023-02-28T12:39:49.910Z,21.30
2023-02-28T12:42:53.493Z,21.40
2023-02-28T12:45:57.574Z,21.10
2023-02-28T12:49:01.046Z,21.20
2023-02-28T12:52:03.370Z,21.30
2023-02-28T12:55:09.183Z,21.50
2023-02-28T12:58:13.907Z,21.50
2023-02-28T13:08:45.534Z,21.20
2023-02-28T13:11:49.753Z,21.00
2023-02-28T13:14:51.324Z,21.30
2023-02-28T13:17:53.667Z,21.20
2023-02-28T13:20:55.048Z,21.50
2023-02-28T13:23:59.052Z,21.40
2023-02-28T13:27:16.347Z,21.50
2023-02-28T13:30:32.480Z,21.50
2023-02-28T13:33:34.939Z,21.60
2023-02-28T13:36:36.222Z,21.30
2023-02-28T13:39:53.507Z,21.70
2023-02-28T13:42:55.160Z,21.30
2023-02-28T13:46:05.603Z,21.50
2023-02-28T13:49:21.811Z,21.30
2023-02-28T13:52:24.542Z,21.40
2023-02-28T13:55:29.273Z,21.20
2023-02-28T13:58:41.431Z,21.40
2023-02-28T14:01:54.447Z,21.20
2023-02-28T14:05:00.946Z,21.70
2023-02-28T14:08:06.323Z,21.40
2023-02-28T14:11:10.039Z,21.50
2023-02-28T14:14:28.455Z,21.50
2023-02-28T14:17:29.777Z,21.60
2023-02-28T14:20:32.845Z,21.50
2023-02-28T14:23:40.190Z,21.50
2023-02-28T14:26:55.379Z,21.50
2023-02-28T14:30:11.599Z,21.60
2023-02-28T14:33:22.178Z,21.50
2023-02-28T14:36:25.452Z,21.60
2023-02-28T14:39:30.927Z,21.30
2023-02-28T14:42:33.547Z,21.40
2023-02-28T14:45:37.568Z,21.30
2023-02-28T14:48:39.305Z,21.70
2023-02-28T14:51:40.634Z,21.50
2023-02-28T14:54:43.782Z,21.60
2023-02-28T14:57:51.330Z,21.40
2023-02-28T15:00:54.132Z,21.60
2023-02-28T15:04:02.837Z,21.40
2023-02-28T15:07:11.778Z,22.00
2023-02-28T15:10:17.972Z,21.60
2023-02-28T15:13:19.468Z,21.40
2023-02-28T15:16:22.320Z,21.40
2023-02-28T15:19:25.299Z,21.50
2023-02-28T15:22:31.552Z,21.40
2023-02-28T15:25:33.735Z,21.50
2023-02-28T15:28:34.978Z,21.20
2023-02-28T15:31:56.015Z,21.60
2023-02-28T15:34:59.541Z,21.40
2023-02-28T15:38:02.184Z,21.50
2023-02-28T15:41:08.243Z,21.30
2023-02-28T15:44:18.379Z,21.30
2023-02-28T15:47:20.997Z,21.50
2023-02-28T15:50:22.383Z,22.00
2023-02-28T15:53:25.745Z,21.50
2023-02-28T15:56:28.499Z,21.50
2023-02-28T15:59:31.484Z,21.60
2023-02-28T16:02:33.673Z,21.50
2023-02-28T16:05:35.517Z,21.30
2023-02-28T16:08:36.914Z,21.80
2023-02-28T16:11:41.374Z,21.50
2023-02-28T16:14:43.064Z,21.60
2023-02-28T16:17:45.304Z,21.50
2023-02-28T16:20:46.886Z,21.70
2023-02-28T16:23:48.184Z,21.50
2023-02-28T16:26:51.954Z,21.60
2023-02-28T16:29:53.857Z,21.60
2023-02-28T16:32:55.708Z,21.80
2023-02-28T16:35:57.107Z,21.10
2023-02-28T16:38:58.466Z,21.70
2023-02-28T16:42:00.341Z,21.40
2023-02-28T16:45:01.600Z,21.30
2023-02-28T16:48:02.986Z,21.40
2023-02-28T16:51:04.584Z,21.70
2023-02-28T16:54:05.858Z,21.30
2023-02-28T16:57:15.818Z,21.60
2023-02-28T17:00:17.265Z,21.50
2023-02-28T17:03:32.005Z,21.40
2023-02-28T17:06:34.281Z,21.50
2023-02-28T17:09:42.427Z,21.40
2023-02-28T17:12:45.176Z,21.20
2023-02-28T17:15:46.818Z,21.80
2023-02-28T17:18:48.211Z,21.20
2023-02-28T17:21:49.455Z,21.60
2023-02-28T17:24:50.921Z,21.30
2023-02-28T17:27:52.764Z,21.30
2023-02-28T17:30:54.351Z,20.80
2023-02-28T17:33:55.784Z,21.40
2023-02-28T17:36:57.144Z,21.10
2023-02-28T17:39:58.405Z,20.70
2023-02-28T17:43:00.313Z,20.90
2023-02-28T17:46:01.722Z,21.20
2023-02-28T17:49:03.268Z,20.80
2023-02-28T17:52:04.644Z,21.30
2023-02-28T17:55:06.108Z,21.00
2023-02-28T17:58:09.769Z,21.00
2023-02-28T18:01:12.266Z,21.00
2023-02-28T18:04:13.645Z,21.10
2023-02-28T18:07:15.060Z,20.90
2023-02-28T18:10:19.387Z,21.00
2023-02-28T18:13:21.355Z,21.00
2023-02-28T18:16:22.825Z,21.00
2023-02-28T18:19:24.266Z,20.60
2023-02-28T18:22:25.577Z,20.80
2023-02-28T18:25:27.059Z,20.90
2023-02-28T18:28:28.910Z,21.10
2023-02-28T18:31:31.557Z,20.90
2023-02-28T18:34:32.931Z,21.10
2023-02-28T18:37:34.785Z,20.70
2023-02-28T18:40:36.115Z,21.10
2023-02-28T18:43:37.982Z,20.60
2023-02-28T18:46:39.490Z,20.70
2023-02-28T18:49:40.847Z,20.70
2023-02-28T18:52:42.136Z,21.10
2023-02-28T18:55:43.557Z,20.80
2023-02-28T18:58:45.719Z,21.20
2023-02-28T19:01:46.950Z,20.90
2023-02-28T19:04:48.326Z,20.30
2023-02-28T19:07:50.156Z,20.50
2023-02-28T19:10:51.403Z,20.90
2023-02-28T19:13:53.449Z,20.70
2023-02-28T19:16:54.754Z,20.90
2023-02-28T19:19:56.126Z,20.80
2023-02-28T19:22:57.403Z,21.00
2023-02-28T19:25:58.994Z,20.80
2023-02-28T19:29:02.282Z,20.90
2023-02-28T19:32:03.654Z,20.50
2023-02-28T19:35:05.216Z,20.90
2023-02-28T19:38:06.579Z,20.60
2023-02-28T19:41:09.170Z,20.70
2023-02-28T19:44:11.151Z,20.70
2023-02-28T19:47:12.481Z,21.00
2023-02-28T19:50:13.863Z,20.70
2023-02-28T19:53:15.100Z,20.80
2023-02-28T19:56:16.629Z,20.40
2023-02-28T19:59:21.640Z,20.70
2023-02-28T20:02:27.258Z,20.60
2023-02-28T20:05:28.614Z,20.40
2023-02-28T20:08:30.113Z,20.40
2023-02-28T20:11:31.402Z,20.60
2023-02-28T20:14:33.226Z,20.50
2023-02-28T20:17:34.519Z,20.60
2023-02-28T20:20:36.820Z,20.60
2023-02-28T20:23:38.510Z,20.60
2023-02-28T20:26:39.773Z,20.50
2023-02-28T20:29:41.566Z,20.00
2023-02-28T20:32:43.075Z,20.60
2023-02-28T20:35:44.502Z,20.50
2023-02-28T20:38:45.914Z,20.20
2023-02-28T20:41:47.169Z,20.60
2023-02-28T20:44:49.059Z,20.30
2023-02-28T20:47:50.360Z,20.50
2023-02-28T20:50:52.166Z,20.00
2023-02-28T20:53:53.438Z,19.90
2023-02-28T20:56:54.714Z,20.40
2023-02-28T20:59:56.485Z,20.60
2023-02-28T21:02:58.184Z,20.40
2023-02-28T21:06:00.616Z,20.60
2023-02-28T21:09:03.398Z,20.30
2023-02-28T21:12:05.160Z,20.70
2023-02-28T21:15:08.261Z,20.30
2023-02-28T21:18:09.498Z,20.40
2023-02-28T21:21:11.854Z,20.30
2023-02-28T21:24:13.771Z,20.50
2023-02-28T21:27:15.611Z,20.30
2023-02-28T21:30:17.479Z,19.90
2023-02-28T21:33:18.718Z,20.50
2023-02-28T21:36:20.778Z,20.60
2023-02-28T21:39:24.975Z,20.40
2023-02-28T21:42:27.352Z,20.10
2023-02-28T21:45:29.167Z,20.20
2023-02-28T21:48:30.997Z,19.90
2023-02-28T21:51:32.460Z,20.40
2023-02-28T21:54:33.901Z,20.70
2023-02-28T21:57:35.238Z,19.90
2023-02-28T22:00:37.408Z,20.20
2023-02-28T22:03:38.923Z,19.90
2023-02-28T22:06:40.876Z,20.20
2023-02-28T22:09:42.145Z,20.30
2023-02-28T22:12:43.431Z,20.20
2023-02-28T22:15:45.273Z,19.80
2023-02-28T22:18:46.680Z,20.20
2023-02-28T22:21:48.205Z,20.10
2023-02-28T22:24:49.465Z,20.00
2023-02-28T22:27:50.815Z,20.20
2023-02-28T22:30:52.905Z,20.10
2023-02-28T22:33:55.091Z,20.30
2023-02-28T22:36:57.262Z,20.10
2023-02-28T22:39:58.518Z,20.20
2023-02-28T22:42:59.743Z,19.80
2023-02-28T22:46:02.573Z,20.20
2023-02-28T22:49:04.278Z,19.70
2023-02-28T22:52:05.759Z,19.90
2023-02-28T22:55:07.727Z,20.30
2023-02-28T22:58:08.963Z,20.30
2023-02-28T23:01:11.643Z,19.80
2023-02-28T23:04:13.038Z,19.70
2023-02-28T23:07:14.672Z,20.30
2023-02-28T23:10:17.077Z,20.10
2023-02-28T23:13:18.896Z,20.40
2023-02-28T23:16:20.708Z,19.80
2023-02-28T23:19:24.130Z,19.70
2023-02-28T23:22:25.435Z,20.50
2023-02-28T23:25:26.690Z,20.20
2023-02-28T23:28:27.932Z,19.80
2023-02-28T23:31:29.779Z,20.20
2023-02-28T23:34:31.215Z,19.70
2023-02-28T23:37:32.757Z,20.00
2023-02-28T23:40:34.131Z,20.40
2023-02-28T23:43:35.626Z,19.70
2023-02-28T23:46:37.440Z,20.00
2023-02-28T23:49:38.691Z,20.10
2023-02-28T23:52:40.180Z,19.60
2023-02-28T23:55:44.763Z,20.00
2023-02-28T23:58:46.314Z,19.60
